sensor_id;sensor_type;location;lat;lon;timestamp;P1;durP1;ratioP1;P2;durP2;ratioP2
21000;SDS011;10658;50.920;12.238;2024-03-17T00:01:44;2.40;;;1.50;;
21000;SDS011;10658;50.920;12.238;2024-03-17T00:05:45;1.90;;;1.40;;
21000;SDS011;10658;50.920;12.238;2024-03-17T00:09:45;2.85;;;1.33;;
21000;SDS011;10658;50.920;12.238;2024-03-17T00:13:47;2.85;;;1.50;;
21000;SDS011;10658;50.920;12.238;2024-03-17T00:17:48;2.63;;;1.75;;
21000;SDS011;10658;50.920;12.238;2024-03-17T00:21:48;3.97;;;1.50;;
21000;SDS011;10658;50.920;12.238;2024-03-17T00:25:52;2.63;;;1.73;;
21000;SDS011;10658;50.920;12.238;2024-03-17T00:29:55;2.38;;;1.67;;
21000;SDS011;10658;50.920;12.238;2024-03-17T00:33:56;2.95;;;2.00;;
21000;SDS011;10658;50.920;12.238;2024-03-17T00:37:58;4.07;;;1.60;;
21000;SDS011;10658;50.920;12.238;2024-03-17T00:41:58;4.10;;;1.60;;
21000;SDS011;10658;50.920;12.238;2024-03-17T00:45:59;1.38;;;1.23;;
21000;SDS011;10658;50.920;12.238;2024-03-17T00:50:00;1.85;;;1.30;;
21000;SDS011;10658;50.920;12.238;2024-03-17T00:54:01;2.33;;;1.90;;
21000;SDS011;10658;50.920;12.238;2024-03-17T00:58:01;3.80;;;1.65;;
21000;SDS011;10658;50.920;12.238;2024-03-17T01:02:03;2.22;;;1.48;;
21000;SDS011;10658;50.920;12.238;2024-03-17T01:06:04;1.38;;;1.10;;
21000;SDS011;10658;50.920;12.238;2024-03-17T01:10:05;2.72;;;1.73;;
21000;SDS011;10658;50.920;12.238;2024-03-17T01:14:08;6.97;;;2.03;;
21000;SDS011;10658;50.920;12.238;2024-03-17T01:18:09;4.78;;;1.35;;
21000;SDS011;10658;50.920;12.238;2024-03-17T01:22:10;2.20;;;1.45;;
21000;SDS011;10658;50.920;12.238;2024-03-17T01:26:11;1.95;;;1.75;;
21000;SDS011;10658;50.920;12.238;2024-03-17T01:30:12;3.92;;;1.42;;
21000;SDS011;10658;50.920;12.238;2024-03-17T01:34:13;2.30;;;1.45;;
21000;SDS011;10658;50.920;12.238;2024-03-17T01:38:14;2.45;;;1.75;;
21000;SDS011;10658;50.920;12.238;2024-03-17T01:42:14;4.18;;;1.77;;
21000;SDS011;10658;50.920;12.238;2024-03-17T01:46:15;5.18;;;1.60;;
21000;SDS011;10658;50.920;12.238;2024-03-17T01:50:18;3.05;;;1.23;;
21000;SDS011;10658;50.920;12.238;2024-03-17T01:54:21;2.85;;;1.60;;
21000;SDS011;10658;50.920;12.238;2024-03-17T01:58:23;2.42;;;1.52;;
21000;SDS011;10658;50.920;12.238;2024-03-17T02:02:25;1.30;;;1.20;;
21000;SDS011;10658;50.920;12.238;2024-03-17T02:06:26;3.75;;;1.55;;
21000;SDS011;10658;50.920;12.238;2024-03-17T02:10:27;3.30;;;1.50;;
21000;SDS011;10658;50.920;12.238;2024-03-17T02:14:28;2.78;;;1.67;;
21000;SDS011;10658;50.920;12.238;2024-03-17T02:18:28;3.88;;;1.58;;
21000;SDS011;10658;50.920;12.238;2024-03-17T02:22:30;3.92;;;1.55;;
21000;SDS011;10658;50.920;12.238;2024-03-17T02:26:30;5.82;;;1.73;;
21000;SDS011;10658;50.920;12.238;2024-03-17T02:30:31;2.15;;;1.40;;
21000;SDS011;10658;50.920;12.238;2024-03-17T02:34:35;2.67;;;1.30;;
21000;SDS011;10658;50.920;12.238;2024-03-17T02:38:36;3.35;;;1.60;;
21000;SDS011;10658;50.920;12.238;2024-03-17T02:42:56;2.65;;;1.73;;
21000;SDS011;10658;50.920;12.238;2024-03-17T02:47:00;3.78;;;1.65;;
21000;SDS011;10658;50.920;12.238;2024-03-17T02:51:02;1.73;;;1.30;;
21000;SDS011;10658;50.920;12.238;2024-03-17T02:55:03;3.03;;;1.48;;
21000;SDS011;10658;50.920;12.238;2024-03-17T02:59:04;2.17;;;1.70;;
21000;SDS011;10658;50.920;12.238;2024-03-17T03:03:04;1.70;;;1.58;;
21000;SDS011;10658;50.920;12.238;2024-03-17T03:07:05;3.30;;;1.85;;
21000;SDS011;10658;50.920;12.238;2024-03-17T03:11:07;2.65;;;1.70;;
21000;SDS011;10658;50.920;12.238;2024-03-17T03:15:12;2.20;;;1.67;;
21000;SDS011;10658;50.920;12.238;2024-03-17T03:19:13;2.22;;;1.40;;
21000;SDS011;10658;50.920;12.238;2024-03-17T03:23:14;2.72;;;1.70;;
21000;SDS011;10658;50.920;12.238;2024-03-17T03:27:15;1.95;;;1.40;;
21000;SDS011;10658;50.920;12.238;2024-03-17T03:31:15;3.15;;;1.92;;
21000;SDS011;10658;50.920;12.238;2024-03-17T03:35:17;3.20;;;1.85;;
21000;SDS011;10658;50.920;12.238;2024-03-17T03:39:18;2.03;;;1.92;;
21000;SDS011;10658;50.920;12.238;2024-03-17T03:43:19;2.40;;;1.38;;
21000;SDS011;10658;50.920;12.238;2024-03-17T03:47:20;3.67;;;1.88;;
21000;SDS011;10658;50.920;12.238;2024-03-17T03:51:21;2.25;;;1.60;;
21000;SDS011;10658;50.920;12.238;2024-03-17T03:55:22;4.97;;;1.60;;
21000;SDS011;10658;50.920;12.238;2024-03-17T03:59:24;6.40;;;2.40;;
21000;SDS011;10658;50.920;12.238;2024-03-17T04:03:25;3.95;;;1.90;;
21000;SDS011;10658;50.920;12.238;2024-03-17T04:07:26;2.65;;;2.00;;
21000;SDS011;10658;50.920;12.238;2024-03-17T04:11:27;3.08;;;1.42;;
21000;SDS011;10658;50.920;12.238;2024-03-17T04:15:28;2.42;;;1.70;;
21000;SDS011;10658;50.920;12.238;2024-03-17T04:19:29;1.90;;;1.75;;
21000;SDS011;10658;50.920;12.238;2024-03-17T04:23:29;2.63;;;1.42;;
21000;SDS011;10658;50.920;12.238;2024-03-17T04:27:33;7.82;;;1.90;;
21000;SDS011;10658;50.920;12.238;2024-03-17T04:31:34;4.30;;;1.80;;
21000;SDS011;10658;50.920;12.238;2024-03-17T04:35:38;7.25;;;1.90;;
21000;SDS011;10658;50.920;12.238;2024-03-17T04:39:40;2.38;;;1.73;;
21000;SDS011;10658;50.920;12.238;2024-03-17T04:43:45;3.05;;;1.50;;
21000;SDS011;10658;50.920;12.238;2024-03-17T04:47:46;1.80;;;1.38;;
21000;SDS011;10658;50.920;12.238;2024-03-17T04:51:47;5.50;;;1.88;;
21000;SDS011;10658;50.920;12.238;2024-03-17T04:55:48;3.22;;;2.15;;
21000;SDS011;10658;50.920;12.238;2024-03-17T04:59:57;2.53;;;1.58;;
21000;SDS011;10658;50.920;12.238;2024-03-17T05:03:58;2.25;;;1.45;;
21000;SDS011;10658;50.920;12.238;2024-03-17T05:07:59;4.53;;;1.77;;
21000;SDS011;10658;50.920;12.238;2024-03-17T05:12:00;1.52;;;1.40;;
21000;SDS011;10658;50.920;12.238;2024-03-17T05:16:01;2.17;;;1.83;;
21000;SDS011;10658;50.920;12.238;2024-03-17T05:20:03;4.40;;;1.50;;
21000;SDS011;10658;50.920;12.238;2024-03-17T05:24:05;3.10;;;1.85;;
21000;SDS011;10658;50.920;12.238;2024-03-17T05:28:06;3.05;;;1.95;;
21000;SDS011;10658;50.920;12.238;2024-03-17T05:32:07;3.28;;;1.75;;
21000;SDS011;10658;50.920;12.238;2024-03-17T05:36:07;1.60;;;1.50;;
21000;SDS011;10658;50.920;12.238;2024-03-17T05:40:09;2.22;;;2.03;;
21000;SDS011;10658;50.920;12.238;2024-03-17T05:44:12;5.60;;;1.77;;
21000;SDS011;10658;50.920;12.238;2024-03-17T05:48:13;6.57;;;1.50;;
21000;SDS011;10658;50.920;12.238;2024-03-17T05:52:14;2.05;;;1.42;;
21000;SDS011;10658;50.920;12.238;2024-03-17T05:56:14;4.15;;;1.55;;
21000;SDS011;10658;50.920;12.238;2024-03-17T06:00:18;3.80;;;1.92;;
21000;SDS011;10658;50.920;12.238;2024-03-17T06:04:19;1.65;;;1.55;;
21000;SDS011;10658;50.920;12.238;2024-03-17T06:08:20;3.08;;;1.67;;
21000;SDS011;10658;50.920;12.238;2024-03-17T06:12:21;2.67;;;1.75;;
21000;SDS011;10658;50.920;12.238;2024-03-17T06:16:22;3.45;;;2.20;;
21000;SDS011;10658;50.920;12.238;2024-03-17T06:20:23;4.22;;;2.15;;
21000;SDS011;10658;50.920;12.238;2024-03-17T06:24:28;3.72;;;1.73;;
21000;SDS011;10658;50.920;12.238;2024-03-17T06:28:28;4.75;;;2.03;;
21000;SDS011;10658;50.920;12.238;2024-03-17T06:32:30;7.60;;;2.33;;
21000;SDS011;10658;50.920;12.238;2024-03-17T06:36:32;2.97;;;1.90;;
21000;SDS011;10658;50.920;12.238;2024-03-17T06:40:33;3.15;;;2.38;;
21000;SDS011;10658;50.920;12.238;2024-03-17T06:44:34;3.03;;;2.08;;
21000;SDS011;10658;50.920;12.238;2024-03-17T06:48:36;4.07;;;1.98;;
21000;SDS011;10658;50.920;12.238;2024-03-17T06:52:36;1.85;;;1.73;;
21000;SDS011;10658;50.920;12.238;2024-03-17T06:56:37;4.05;;;1.73;;
21000;SDS011;10658;50.920;12.238;2024-03-17T07:00:38;2.55;;;1.70;;
21000;SDS011;10658;50.920;12.238;2024-03-17T07:04:38;3.08;;;2.05;;
21000;SDS011;10658;50.920;12.238;2024-03-17T07:08:39;5.32;;;2.28;;
21000;SDS011;10658;50.920;12.238;2024-03-17T07:12:40;4.90;;;1.90;;
21000;SDS011;10658;50.920;12.238;2024-03-17T07:16:41;1.92;;;1.70;;
21000;SDS011;10658;50.920;12.238;2024-03-17T07:20:43;2.90;;;2.08;;
21000;SDS011;10658;50.920;12.238;2024-03-17T07:24:43;4.88;;;2.28;;
21000;SDS011;10658;50.920;12.238;2024-03-17T07:28:44;6.70;;;2.88;;
21000;SDS011;10658;50.920;12.238;2024-03-17T07:32:45;7.38;;;3.03;;
21000;SDS011;10658;50.920;12.238;2024-03-17T07:36:46;3.13;;;2.40;;
21000;SDS011;10658;50.920;12.238;2024-03-17T07:40:57;3.30;;;2.13;;
21000;SDS011;10658;50.920;12.238;2024-03-17T07:45:06;3.95;;;2.45;;
21000;SDS011;10658;50.920;12.238;2024-03-17T07:49:11;5.30;;;2.70;;
21000;SDS011;10658;50.920;12.238;2024-03-17T07:53:12;4.43;;;2.53;;
21000;SDS011;10658;50.920;12.238;2024-03-17T07:57:13;4.32;;;3.63;;
21000;SDS011;10658;50.920;12.238;2024-03-17T08:01:15;6.03;;;3.78;;
21000;SDS011;10658;50.920;12.238;2024-03-17T08:05:16;8.23;;;5.53;;
21000;SDS011;10658;50.920;12.238;2024-03-17T08:09:17;7.95;;;3.05;;
21000;SDS011;10658;50.920;12.238;2024-03-17T08:13:19;5.43;;;2.65;;
21000;SDS011;10658;50.920;12.238;2024-03-17T08:17:21;3.45;;;2.45;;
21000;SDS011;10658;50.920;12.238;2024-03-17T08:21:22;3.85;;;2.50;;
21000;SDS011;10658;50.920;12.238;2024-03-17T08:25:23;6.60;;;3.00;;
21000;SDS011;10658;50.920;12.238;2024-03-17T08:29:24;6.95;;;2.90;;
21000;SDS011;10658;50.920;12.238;2024-03-17T08:33:25;8.13;;;2.50;;
21000;SDS011;10658;50.920;12.238;2024-03-17T08:37:26;5.63;;;2.65;;
21000;SDS011;10658;50.920;12.238;2024-03-17T08:41:27;8.40;;;3.00;;
21000;SDS011;10658;50.920;12.238;2024-03-17T08:45:30;4.72;;;2.67;;
21000;SDS011;10658;50.920;12.238;2024-03-17T08:49:31;5.30;;;2.58;;
21000;SDS011;10658;50.920;12.238;2024-03-17T08:53:32;3.38;;;2.40;;
21000;SDS011;10658;50.920;12.238;2024-03-17T08:57:33;4.60;;;2.65;;
21000;SDS011;10658;50.920;12.238;2024-03-17T09:01:34;5.57;;;2.85;;
21000;SDS011;10658;50.920;12.238;2024-03-17T09:05:35;5.60;;;2.97;;
21000;SDS011;10658;50.920;12.238;2024-03-17T09:09:36;7.47;;;2.65;;
21000;SDS011;10658;50.920;12.238;2024-03-17T09:13:37;5.32;;;2.88;;
21000;SDS011;10658;50.920;12.238;2024-03-17T09:17:38;7.07;;;2.83;;
21000;SDS011;10658;50.920;12.238;2024-03-17T09:21:39;3.13;;;2.58;;
21000;SDS011;10658;50.920;12.238;2024-03-17T09:25:40;5.55;;;3.08;;
21000;SDS011;10658;50.920;12.238;2024-03-17T09:29:41;5.68;;;2.85;;
21000;SDS011;10658;50.920;12.238;2024-03-17T09:33:41;4.00;;;2.15;;
21000;SDS011;10658;50.920;12.238;2024-03-17T09:37:42;5.05;;;2.53;;
21000;SDS011;10658;50.920;12.238;2024-03-17T09:41:43;4.65;;;2.88;;
21000;SDS011;10658;50.920;12.238;2024-03-17T09:45:45;4.18;;;3.00;;
21000;SDS011;10658;50.920;12.238;2024-03-17T09:49:47;7.38;;;2.95;;
21000;SDS011;10658;50.920;12.238;2024-03-17T09:53:51;3.30;;;2.10;;
21000;SDS011;10658;50.920;12.238;2024-03-17T09:57:52;3.95;;;2.22;;
21000;SDS011;10658;50.920;12.238;2024-03-17T10:01:53;2.65;;;2.17;;
21000;SDS011;10658;50.920;12.238;2024-03-17T10:05:59;4.60;;;2.10;;
21000;SDS011;10658;50.920;12.238;2024-03-17T10:10:12;2.70;;;2.20;;
21000;SDS011;10658;50.920;12.238;2024-03-17T10:14:15;3.20;;;1.88;;
21000;SDS011;10658;50.920;12.238;2024-03-17T10:18:21;3.08;;;2.47;;
21000;SDS011;10658;50.920;12.238;2024-03-17T10:22:25;2.25;;;2.03;;
21000;SDS011;10658;50.920;12.238;2024-03-17T10:26:26;3.20;;;2.58;;
21000;SDS011;10658;50.920;12.238;2024-03-17T10:30:27;3.08;;;2.30;;
21000;SDS011;10658;50.920;12.238;2024-03-17T10:34:30;7.63;;;2.65;;
21000;SDS011;10658;50.920;12.238;2024-03-17T10:38:37;2.97;;;2.05;;
21000;SDS011;10658;50.920;12.238;2024-03-17T10:42:51;6.82;;;2.47;;
21000;SDS011;10658;50.920;12.238;2024-03-17T10:46:53;3.55;;;2.20;;
21000;SDS011;10658;50.920;12.238;2024-03-17T10:50:56;3.47;;;2.30;;
21000;SDS011;10658;50.920;12.238;2024-03-17T10:55:04;3.03;;;2.13;;
21000;SDS011;10658;50.920;12.238;2024-03-17T10:59:08;2.63;;;1.63;;
21000;SDS011;10658;50.920;12.238;2024-03-17T11:03:11;3.13;;;2.22;;
21000;SDS011;10658;50.920;12.238;2024-03-17T11:07:15;4.78;;;2.60;;
21000;SDS011;10658;50.920;12.238;2024-03-17T11:11:34;5.68;;;2.38;;
21000;SDS011;10658;50.920;12.238;2024-03-17T11:15:37;6.38;;;2.53;;
21000;SDS011;10658;50.920;12.238;2024-03-17T11:19:40;4.45;;;2.30;;
21000;SDS011;10658;50.920;12.238;2024-03-17T11:23:41;5.82;;;2.53;;
21000;SDS011;10658;50.920;12.238;2024-03-17T11:27:42;4.57;;;2.83;;
21000;SDS011;10658;50.920;12.238;2024-03-17T11:31:44;5.43;;;2.60;;
21000;SDS011;10658;50.920;12.238;2024-03-17T11:35:46;5.00;;;2.88;;
21000;SDS011;10658;50.920;12.238;2024-03-17T11:44:12;4.43;;;2.83;;
21000;SDS011;10658;50.920;12.238;2024-03-17T11:48:14;7.30;;;4.00;;
21000;SDS011;10658;50.920;12.238;2024-03-17T11:52:15;4.50;;;2.72;;
21000;SDS011;10658;50.920;12.238;2024-03-17T11:56:22;6.53;;;3.03;;
21000;SDS011;10658;50.920;12.238;2024-03-17T12:00:24;4.70;;;2.22;;
21000;SDS011;10658;50.920;12.238;2024-03-17T12:04:28;4.93;;;2.70;;
21000;SDS011;10658;50.920;12.238;2024-03-17T12:08:32;8.20;;;2.40;;
21000;SDS011;10658;50.920;12.238;2024-03-17T12:12:37;5.95;;;2.65;;
21000;SDS011;10658;50.920;12.238;2024-03-17T12:16:45;6.63;;;2.65;;
21000;SDS011;10658;50.920;12.238;2024-03-17T12:20:49;5.45;;;3.20;;
21000;SDS011;10658;50.920;12.238;2024-03-17T12:24:54;4.60;;;2.80;;
21000;SDS011;10658;50.920;12.238;2024-03-17T12:28:56;5.15;;;2.90;;
21000;SDS011;10658;50.920;12.238;2024-03-17T12:32:57;5.07;;;2.72;;
21000;SDS011;10658;50.920;12.238;2024-03-17T12:36:58;4.45;;;2.67;;
21000;SDS011;10658;50.920;12.238;2024-03-17T12:40:59;3.95;;;2.25;;
21000;SDS011;10658;50.920;12.238;2024-03-17T12:45:00;3.53;;;2.55;;
21000;SDS011;10658;50.920;12.238;2024-03-17T12:49:01;5.45;;;2.60;;
21000;SDS011;10658;50.920;12.238;2024-03-17T12:53:02;3.53;;;2.63;;
21000;SDS011;10658;50.920;12.238;2024-03-17T12:57:04;5.00;;;2.50;;
21000;SDS011;10658;50.920;12.238;2024-03-17T13:01:24;2.95;;;2.22;;
21000;SDS011;10658;50.920;12.238;2024-03-17T13:05:25;3.47;;;2.28;;
21000;SDS011;10658;50.920;12.238;2024-03-17T13:09:30;3.28;;;2.45;;
21000;SDS011;10658;50.920;12.238;2024-03-17T13:13:31;6.15;;;2.42;;
21000;SDS011;10658;50.920;12.238;2024-03-17T13:17:31;4.65;;;2.47;;
21000;SDS011;10658;50.920;12.238;2024-03-17T13:21:34;7.07;;;2.53;;
21000;SDS011;10658;50.920;12.238;2024-03-17T13:25:34;3.28;;;2.60;;
21000;SDS011;10658;50.920;12.238;2024-03-17T13:29:36;6.25;;;2.85;;
21000;SDS011;10658;50.920;12.238;2024-03-17T13:33:38;6.18;;;2.83;;
21000;SDS011;10658;50.920;12.238;2024-03-17T13:37:39;6.38;;;3.17;;
21000;SDS011;10658;50.920;12.238;2024-03-17T13:41:40;3.53;;;2.47;;
21000;SDS011;10658;50.920;12.238;2024-03-17T13:45:42;3.85;;;2.30;;
21000;SDS011;10658;50.920;12.238;2024-03-17T13:49:43;3.67;;;2.83;;
21000;SDS011;10658;50.920;12.238;2024-03-17T13:53:44;2.95;;;2.65;;
21000;SDS011;10658;50.920;12.238;2024-03-17T13:57:46;3.75;;;2.70;;
21000;SDS011;10658;50.920;12.238;2024-03-17T14:01:49;4.00;;;2.80;;
21000;SDS011;10658;50.920;12.238;2024-03-17T14:05:50;3.95;;;2.67;;
21000;SDS011;10658;50.920;12.238;2024-03-17T14:09:51;5.97;;;2.28;;
21000;SDS011;10658;50.920;12.238;2024-03-17T14:13:53;4.55;;;2.72;;
21000;SDS011;10658;50.920;12.238;2024-03-17T14:17:54;3.95;;;2.45;;
21000;SDS011;10658;50.920;12.238;2024-03-17T14:21:54;4.13;;;2.80;;
21000;SDS011;10658;50.920;12.238;2024-03-17T14:25:55;4.35;;;2.65;;
21000;SDS011;10658;50.920;12.238;2024-03-17T14:29:57;5.40;;;2.88;;
21000;SDS011;10658;50.920;12.238;2024-03-17T14:33:58;5.32;;;2.80;;
21000;SDS011;10658;50.920;12.238;2024-03-17T14:37:59;4.38;;;2.50;;
21000;SDS011;10658;50.920;12.238;2024-03-17T14:42:00;3.80;;;2.60;;
21000;SDS011;10658;50.920;12.238;2024-03-17T14:46:01;6.50;;;2.80;;
21000;SDS011;10658;50.920;12.238;2024-03-17T14:50:02;5.50;;;3.30;;
21000;SDS011;10658;50.920;12.238;2024-03-17T14:54:03;3.85;;;2.15;;
21000;SDS011;10658;50.920;12.238;2024-03-17T14:58:03;3.63;;;2.38;;
21000;SDS011;10658;50.920;12.238;2024-03-17T15:02:07;3.22;;;2.67;;
21000;SDS011;10658;50.920;12.238;2024-03-17T15:06:08;5.10;;;2.55;;
21000;SDS011;10658;50.920;12.238;2024-03-17T15:10:10;6.18;;;3.00;;
21000;SDS011;10658;50.920;12.238;2024-03-17T15:14:13;7.95;;;4.22;;
21000;SDS011;10658;50.920;12.238;2024-03-17T15:18:13;3.78;;;2.80;;
21000;SDS011;10658;50.920;12.238;2024-03-17T15:22:14;5.57;;;2.75;;
21000;SDS011;10658;50.920;12.238;2024-03-17T15:26:15;4.95;;;3.08;;
21000;SDS011;10658;50.920;12.238;2024-03-17T15:30:17;4.15;;;3.00;;
21000;SDS011;10658;50.920;12.238;2024-03-17T15:40:26;7.43;;;3.53;;
21000;SDS011;10658;50.920;12.238;2024-03-17T15:44:36;7.53;;;3.22;;
21000;SDS011;10658;50.920;12.238;2024-03-17T15:53:49;3.90;;;3.22;;
21000;SDS011;10658;50.920;12.238;2024-03-17T15:58:24;4.07;;;2.95;;
21000;SDS011;10658;50.920;12.238;2024-03-17T16:03:04;6.53;;;3.50;;
21000;SDS011;10658;50.920;12.238;2024-03-17T16:07:33;7.90;;;4.05;;
21000;SDS011;10658;50.920;12.238;2024-03-17T16:11:39;4.00;;;3.40;;
21000;SDS011;10658;50.920;12.238;2024-03-17T16:16:10;5.10;;;3.63;;
21000;SDS011;10658;50.920;12.238;2024-03-17T16:20:27;6.75;;;4.20;;
21000;SDS011;10658;50.920;12.238;2024-03-17T16:24:57;5.50;;;3.42;;
21000;SDS011;10658;50.920;12.238;2024-03-17T16:28:58;6.15;;;3.65;;
21000;SDS011;10658;50.920;12.238;2024-03-17T16:33:00;4.88;;;3.50;;
21000;SDS011;10658;50.920;12.238;2024-03-17T16:37:01;5.82;;;3.78;;
21000;SDS011;10658;50.920;12.238;2024-03-17T16:41:02;8.73;;;3.90;;
21000;SDS011;10658;50.920;12.238;2024-03-17T16:45:05;6.25;;;3.35;;
21000;SDS011;10658;50.920;12.238;2024-03-17T16:49:06;6.05;;;3.55;;
21000;SDS011;10658;50.920;12.238;2024-03-17T16:53:09;7.28;;;3.70;;
21000;SDS011;10658;50.920;12.238;2024-03-17T16:57:10;5.57;;;4.07;;
21000;SDS011;10658;50.920;12.238;2024-03-17T17:01:13;5.63;;;4.03;;
21000;SDS011;10658;50.920;12.238;2024-03-17T17:05:15;4.88;;;3.58;;
21000;SDS011;10658;50.920;12.238;2024-03-17T17:09:16;6.55;;;3.63;;
21000;SDS011;10658;50.920;12.238;2024-03-17T17:13:17;6.32;;;4.20;;
21000;SDS011;10658;50.920;12.238;2024-03-17T17:17:18;6.45;;;3.60;;
21000;SDS011;10658;50.920;12.238;2024-03-17T17:21:22;6.28;;;4.28;;
21000;SDS011;10658;50.920;12.238;2024-03-17T17:25:24;10.02;;;4.07;;
21000;SDS011;10658;50.920;12.238;2024-03-17T17:29:26;5.47;;;3.45;;
21000;SDS011;10658;50.920;12.238;2024-03-17T17:33:33;7.50;;;4.00;;
21000;SDS011;10658;50.920;12.238;2024-03-17T17:37:49;6.85;;;4.30;;
21000;SDS011;10658;50.920;12.238;2024-03-17T17:42:15;6.95;;;4.80;;
21000;SDS011;10658;50.920;12.238;2024-03-17T17:46:42;6.97;;;4.07;;
21000;SDS011;10658;50.920;12.238;2024-03-17T17:50:42;6.85;;;3.63;;
21000;SDS011;10658;50.920;12.238;2024-03-17T17:54:43;6.13;;;3.72;;
21000;SDS011;10658;50.920;12.238;2024-03-17T17:58:45;6.88;;;4.50;;
21000;SDS011;10658;50.920;12.238;2024-03-17T18:02:48;7.80;;;5.03;;
21000;SDS011;10658;50.920;12.238;2024-03-17T18:06:48;7.07;;;5.90;;
21000;SDS011;10658;50.920;12.238;2024-03-17T18:10:50;7.72;;;5.35;;
21000;SDS011;10658;50.920;12.238;2024-03-17T18:14:51;6.63;;;5.05;;
21000;SDS011;10658;50.920;12.238;2024-03-17T18:18:51;11.57;;;5.60;;
21000;SDS011;10658;50.920;12.238;2024-03-17T18:22:52;9.43;;;6.15;;
21000;SDS011;10658;50.920;12.238;2024-03-17T18:26:53;10.15;;;5.47;;
21000;SDS011;10658;50.920;12.238;2024-03-17T18:30:54;9.70;;;6.53;;
21000;SDS011;10658;50.920;12.238;2024-03-17T18:34:55;8.82;;;6.30;;
21000;SDS011;10658;50.920;12.238;2024-03-17T18:38:58;12.05;;;7.05;;
21000;SDS011;10658;50.920;12.238;2024-03-17T18:42:59;12.65;;;6.97;;
21000;SDS011;10658;50.920;12.238;2024-03-17T18:47:03;10.45;;;5.75;;
21000;SDS011;10658;50.920;12.238;2024-03-17T18:51:05;10.38;;;6.45;;
21000;SDS011;10658;50.920;12.238;2024-03-17T18:55:05;10.15;;;6.15;;
21000;SDS011;10658;50.920;12.238;2024-03-17T18:59:06;9.30;;;6.57;;
21000;SDS011;10658;50.920;12.238;2024-03-17T19:03:07;10.30;;;6.95;;
21000;SDS011;10658;50.920;12.238;2024-03-17T19:07:08;10.63;;;5.85;;
21000;SDS011;10658;50.920;12.238;2024-03-17T19:11:09;13.57;;;6.88;;
21000;SDS011;10658;50.920;12.238;2024-03-17T19:15:13;11.15;;;7.35;;
21000;SDS011;10658;50.920;12.238;2024-03-17T19:19:14;7.20;;;5.95;;
21000;SDS011;10658;50.920;12.238;2024-03-17T19:23:15;7.32;;;5.78;;
21000;SDS011;10658;50.920;12.238;2024-03-17T19:27:15;12.00;;;6.15;;
21000;SDS011;10658;50.920;12.238;2024-03-17T19:31:16;11.70;;;6.25;;
21000;SDS011;10658;50.920;12.238;2024-03-17T19:35:17;10.65;;;6.40;;
21000;SDS011;10658;50.920;12.238;2024-03-17T19:39:19;8.25;;;5.90;;
21000;SDS011;10658;50.920;12.238;2024-03-17T19:43:20;11.32;;;6.88;;
21000;SDS011;10658;50.920;12.238;2024-03-17T19:47:20;11.63;;;6.95;;
21000;SDS011;10658;50.920;12.238;2024-03-17T19:51:23;11.57;;;7.13;;
21000;SDS011;10658;50.920;12.238;2024-03-17T19:55:25;9.20;;;6.43;;
21000;SDS011;10658;50.920;12.238;2024-03-17T19:59:26;11.75;;;6.60;;
21000;SDS011;10658;50.920;12.238;2024-03-17T20:03:27;12.30;;;7.38;;
21000;SDS011;10658;50.920;12.238;2024-03-17T20:07:28;8.93;;;6.50;;
21000;SDS011;10658;50.920;12.238;2024-03-17T20:11:28;11.02;;;6.20;;
21000;SDS011;10658;50.920;12.238;2024-03-17T20:15:29;9.93;;;6.30;;
21000;SDS011;10658;50.920;12.238;2024-03-17T20:19:30;10.30;;;6.88;;
21000;SDS011;10658;50.920;12.238;2024-03-17T20:23:31;12.38;;;7.68;;
21000;SDS011;10658;50.920;12.238;2024-03-17T20:27:31;9.27;;;6.55;;
21000;SDS011;10658;50.920;12.238;2024-03-17T20:31:32;9.25;;;6.35;;
21000;SDS011;10658;50.920;12.238;2024-03-17T20:35:35;8.38;;;6.00;;
21000;SDS011;10658;50.920;12.238;2024-03-17T20:39:36;9.18;;;6.43;;
21000;SDS011;10658;50.920;12.238;2024-03-17T20:43:37;10.23;;;6.85;;
21000;SDS011;10658;50.920;12.238;2024-03-17T20:47:39;10.48;;;6.38;;
21000;SDS011;10658;50.920;12.238;2024-03-17T20:51:41;9.38;;;6.13;;
21000;SDS011;10658;50.920;12.238;2024-03-17T20:55:42;8.23;;;5.95;;
21000;SDS011;10658;50.920;12.238;2024-03-17T20:59:43;8.02;;;5.63;;
21000;SDS011;10658;50.920;12.238;2024-03-17T21:03:44;10.65;;;6.80;;
21000;SDS011;10658;50.920;12.238;2024-03-17T21:07:45;11.95;;;8.30;;
21000;SDS011;10658;50.920;12.238;2024-03-17T21:11:46;11.27;;;7.20;;
21000;SDS011;10658;50.920;12.238;2024-03-17T21:15:47;10.80;;;7.45;;
21000;SDS011;10658;50.920;12.238;2024-03-17T21:19:50;10.00;;;7.30;;
21000;SDS011;10658;50.920;12.238;2024-03-17T21:23:52;10.10;;;7.40;;
21000;SDS011;10658;50.920;12.238;2024-03-17T21:27:53;10.68;;;7.03;;
21000;SDS011;10658;50.920;12.238;2024-03-17T21:31:54;9.45;;;6.80;;
21000;SDS011;10658;50.920;12.238;2024-03-17T21:35:55;11.73;;;8.00;;
21000;SDS011;10658;50.920;12.238;2024-03-17T21:39:56;12.02;;;7.40;;
21000;SDS011;10658;50.920;12.238;2024-03-17T21:43:56;10.07;;;8.02;;
21000;SDS011;10658;50.920;12.238;2024-03-17T21:47:57;9.45;;;6.65;;
21000;SDS011;10658;50.920;12.238;2024-03-17T21:51:58;7.30;;;5.20;;
21000;SDS011;10658;50.920;12.238;2024-03-17T21:55:59;11.05;;;7.25;;
21000;SDS011;10658;50.920;12.238;2024-03-17T22:00:01;10.10;;;6.65;;
21000;SDS011;10658;50.920;12.238;2024-03-17T22:04:05;10.15;;;7.25;;
21000;SDS011;10658;50.920;12.238;2024-03-17T22:08:06;10.77;;;6.65;;
21000;SDS011;10658;50.920;12.238;2024-03-17T22:12:08;15.60;;;7.47;;
21000;SDS011;10658;50.920;12.238;2024-03-17T22:16:09;11.00;;;6.88;;
21000;SDS011;10658;50.920;12.238;2024-03-17T22:20:10;12.60;;;6.45;;
21000;SDS011;10658;50.920;12.238;2024-03-17T22:24:11;9.27;;;6.13;;
21000;SDS011;10658;50.920;12.238;2024-03-17T22:28:12;8.27;;;6.40;;
21000;SDS011;10658;50.920;12.238;2024-03-17T22:32:12;9.10;;;6.13;;
21000;SDS011;10658;50.920;12.238;2024-03-17T22:36:13;12.40;;;6.95;;
21000;SDS011;10658;50.920;12.238;2024-03-17T22:40:15;9.68;;;6.13;;
21000;SDS011;10658;50.920;12.238;2024-03-17T22:44:16;7.95;;;5.75;;
21000;SDS011;10658;50.920;12.238;2024-03-17T22:48:17;11.38;;;6.82;;
21000;SDS011;10658;50.920;12.238;2024-03-17T22:52:18;13.60;;;6.38;;
21000;SDS011;10658;50.920;12.238;2024-03-17T22:56:19;9.40;;;5.75;;
21000;SDS011;10658;50.920;12.238;2024-03-17T23:00:25;9.30;;;6.50;;
21000;SDS011;10658;50.920;12.238;2024-03-17T23:04:55;11.95;;;7.25;;
21000;SDS011;10658;50.920;12.238;2024-03-17T23:08:57;8.73;;;6.35;;
21000;SDS011;10658;50.920;12.238;2024-03-17T23:12:57;9.98;;;5.57;;
21000;SDS011;10658;50.920;12.238;2024-03-17T23:16:58;8.18;;;5.85;;
21000;SDS011;10658;50.920;12.238;2024-03-17T23:20:59;12.13;;;7.03;;
21000;SDS011;10658;50.920;12.238;2024-03-17T23:25:00;8.57;;;5.45;;
21000;SDS011;10658;50.920;12.238;2024-03-17T23:29:01;9.07;;;5.47;;
21000;SDS011;10658;50.920;12.238;2024-03-17T23:33:02;7.65;;;5.45;;
21000;SDS011;10658;50.920;12.238;2024-03-17T23:37:03;7.22;;;5.18;;
21000;SDS011;10658;50.920;12.238;2024-03-17T23:41:04;8.48;;;5.80;;
21000;SDS011;10658;50.920;12.238;2024-03-17T23:45:06;11.05;;;6.13;;
21000;SDS011;10658;50.920;12.238;2024-03-17T23:49:08;9.02;;;6.05;;
21000;SDS011;10658;50.920;12.238;2024-03-17T23:53:09;8.60;;;5.57;;
21000;SDS011;10658;50.920;12.238;2024-03-17T23:57:09;8.32;;;5.65;;
